Airport Name : Sumburgh

Other Name : Sumburgh

ICAO : EGPB

IATA : LSI

FAA :

Latitude : 59.878889

Longitude : -1.295556

Country : United Kingdom

Local Date and Time : 7/16/2019 7:38:00 PM

 

TAF (Terminal Aerodrome Forecast)

TAF EGPB 161705Z 1618/1703 14009KT 4000 -DZ BR BKN003 TEMPO 1618/1703 0300 FG VV/// PROB30 TEMPO 1618/1703 9999 NSW BKN006

 

METAR (METeorological Aerodrome Report)

EGPB 161820Z VRB01KT 3000 1000W BCFG FEW001 SCT003 BKN006 13/12 Q1015 TEMPO 0600 FG BKN003

EGPB 161750Z 20002KT 0100 FG OVC001 13/12 Q1015 TEMPO 0400

EGPB 161720Z VRB02KT 1500 BR FEW001 SCT002 OVC003 13/12 Q1015 TEMPO BKN002

EGPB 161650Z 25002KT 2000 BR SCT001 OVC002 13/12 Q1015 TEMPO 1200 BKN001

EGPB 161620Z VRB03KT 1500 BR BKN001 OVC002 13/13 Q1015 TEMPO 0600 FG

EGPB 161550Z 18004KT 0700 R27/1200 FG VV/// 13/13 Q1015 TEMPO 0400

EGPB 161520Z 18004KT 0200 R27/0750 FG OVC001 13/13 Q1016 TEMPO 0600

EGPB 161450Z 18004KT 1100 BR SCT001 OVC002 13/12 Q1016 TEMPO 2500